createdAt,value
2017-06-09T00:00:29.807Z,66.61
2017-06-09T00:02:31.656Z,66.14
2017-06-09T00:04:33.466Z,66.61
2017-06-09T00:06:35.404Z,66.04
2017-06-09T00:08:37.242Z,66.04
2017-06-09T00:10:39.043Z,65.50
2017-06-09T00:12:40.861Z,66.23
2017-06-09T00:14:42.823Z,65.27
2017-06-09T00:16:44.591Z,65.17
2017-06-09T00:18:46.510Z,65.37
2017-06-09T00:20:48.502Z,66.23
2017-06-09T00:22:50.678Z,66.61
2017-06-09T00:24:52.506Z,66.71
2017-06-09T00:26:54.397Z,67.00
2017-06-09T00:28:56.329Z,67.19
2017-06-09T00:30:58.109Z,66.91
2017-06-09T00:33:00.174Z,67.58
2017-06-09T00:35:02.112Z,66.97
2017-06-09T00:37:03.959Z,67.54
2017-06-09T00:39:05.767Z,67.00
2017-06-09T00:41:07.642Z,66.30
2017-06-09T00:43:09.503Z,66.91
2017-06-09T00:45:11.452Z,66.23
2017-06-09T00:47:13.275Z,66.52
2017-06-09T00:49:15.099Z,66.71
2017-06-09T00:51:16.907Z,67.00
2017-06-09T00:53:18.686Z,66.33
2017-06-09T00:55:20.710Z,66.14
2017-06-09T00:57:22.775Z,66.23
2017-06-09T00:59:24.598Z,66.58
2017-06-09T01:01:26.520Z,66.87
2017-06-09T01:03:28.383Z,66.81
2017-06-09T01:05:30.318Z,65.33
2017-06-09T01:07:32.263Z,65.17
2017-06-09T01:09:34.158Z,64.85
2017-06-09T01:11:36.093Z,65.37
2017-06-09T01:13:37.957Z,65.33
2017-06-09T01:15:39.823Z,65.23
2017-06-09T01:17:41.730Z,64.98
2017-06-09T01:19:43.689Z,65.46
2017-06-09T01:21:45.567Z,65.08
2017-06-09T01:23:47.320Z,64.31
2017-06-09T01:25:49.089Z,64.31
2017-06-09T01:27:50.984Z,64.60
2017-06-09T01:29:52.846Z,63.89
2017-06-09T01:31:54.572Z,64.60
2017-06-09T01:33:56.408Z,64.31
2017-06-09T01:35:58.445Z,63.54
2017-06-09T01:38:00.305Z,64.02
2017-06-09T01:40:02.215Z,64.12
2017-06-09T01:42:04.180Z,64.31
2017-06-09T01:44:06.098Z,64.02
2017-06-09T01:46:07.942Z,63.83
2017-06-09T01:48:09.730Z,64.76
2017-06-09T01:50:11.859Z,64.50
2017-06-09T01:52:13.688Z,64.09
2017-06-09T01:54:15.594Z,64.09
2017-06-09T01:56:17.532Z,63.99
2017-06-09T01:58:19.468Z,63.99
2017-06-09T02:00:21.276Z,64.37
2017-06-09T02:02:23.116Z,63.60
2017-06-09T02:04:25.307Z,63.79
2017-06-09T02:06:27.254Z,64.12
2017-06-09T02:08:29.423Z,63.92
2017-06-09T02:10:31.473Z,63.64
2017-06-09T02:12:33.251Z,63.35
2017-06-09T02:14:35.663Z,63.35
2017-06-09T02:16:37.607Z,63.60
2017-06-09T02:18:39.487Z,63.73
2017-06-09T02:20:41.318Z,63.06
2017-06-09T02:22:43.185Z,63.15
2017-06-09T02:24:44.946Z,63.45
2017-06-09T02:26:46.892Z,62.87
2017-06-09T02:28:48.678Z,63.06
2017-06-09T02:30:50.725Z,63.06
2017-06-09T02:32:52.552Z,62.58
2017-06-09T02:34:54.583Z,62.87
2017-06-09T02:36:56.393Z,61.97
2017-06-09T02:38:58.234Z,63.25
2017-06-09T02:41:00.301Z,62.68
2017-06-09T02:43:02.260Z,62.68
2017-06-09T02:45:04.139Z,63.06
2017-06-09T02:47:05.898Z,63.73
2017-06-09T02:49:07.644Z,63.25
2017-06-09T02:51:09.541Z,62.58
2017-06-09T02:53:11.504Z,61.81
2017-06-09T02:55:13.514Z,61.23
2017-06-09T02:57:15.601Z,62.68
2017-06-09T02:59:17.629Z,61.91
2017-06-09T03:01:19.478Z,61.04
2017-06-09T03:03:21.574Z,61.04
2017-06-09T03:05:23.455Z,61.04
2017-06-09T03:07:25.482Z,61.52
2017-06-09T03:09:27.392Z,61.52
2017-06-09T03:11:29.280Z,60.66
2017-06-09T03:13:31.186Z,60.94
2017-06-09T03:15:33.206Z,60.97
2017-06-09T03:17:35.209Z,61.81
2017-06-09T03:19:37.696Z,60.27
2017-06-09T03:21:39.546Z,59.79
2017-06-09T03:23:41.575Z,60.37
2017-06-09T03:25:43.514Z,60.37
2017-06-09T03:27:45.263Z,61.04
2017-06-09T03:29:47.232Z,61.33
2017-06-09T03:31:49.154Z,60.27
2017-06-09T03:33:51.053Z,60.75
2017-06-09T03:35:52.962Z,61.71
2017-06-09T03:37:54.916Z,61.14
2017-06-09T03:39:56.792Z,59.79
2017-06-09T03:41:58.962Z,60.37
2017-06-09T03:44:00.687Z,61.04
2017-06-09T03:46:02.521Z,61.61
2017-06-09T03:48:04.555Z,61.23
2017-06-09T03:50:06.510Z,61.43
2017-06-09T03:52:08.249Z,62.00
2017-06-09T03:54:10.009Z,61.71
2017-06-09T03:56:11.924Z,60.27
2017-06-09T03:58:13.962Z,60.56
2017-06-09T04:00:15.816Z,60.21
2017-06-09T04:02:17.812Z,60.27
2017-06-09T04:04:19.608Z,59.89
2017-06-09T04:06:21.531Z,59.89
2017-06-09T04:08:23.397Z,61.16
2017-06-09T04:10:25.311Z,61.26
2017-06-09T04:12:27.204Z,60.97
2017-06-09T04:14:29.119Z,61.36
2017-06-09T04:16:30.974Z,61.84
2017-06-09T04:18:32.799Z,59.82
2017-06-09T04:20:34.735Z,61.94
2017-06-09T04:22:36.533Z,61.84
2017-06-09T04:24:38.449Z,61.94
2017-06-09T04:26:40.343Z,62.61
2017-06-09T04:28:42.241Z,60.59
2017-06-09T04:30:44.139Z,62.13
2017-06-09T04:32:46.016Z,63.09
2017-06-09T04:34:47.970Z,63.18
2017-06-09T04:36:50.242Z,63.95
2017-06-09T04:38:56.509Z,65.50
2017-06-09T04:40:57.921Z,65.11
2017-06-09T04:43:01.811Z,64.82
2017-06-09T04:45:03.603Z,64.92
2017-06-09T04:47:05.587Z,65.01
2017-06-09T04:49:07.420Z,62.51
2017-06-09T04:51:09.235Z,63.18
2017-06-09T04:53:11.286Z,63.57
2017-06-09T04:55:13.389Z,65.11
2017-06-09T04:57:15.230Z,64.25
2017-06-09T04:59:17.117Z,64.25
2017-06-09T05:01:18.969Z,64.15
2017-06-09T05:03:20.881Z,64.92
2017-06-09T05:05:22.753Z,64.92
2017-06-09T05:07:24.921Z,63.95
2017-06-09T05:09:26.832Z,65.24
2017-06-09T05:11:28.879Z,66.46
2017-06-09T05:13:30.922Z,63.95
2017-06-09T05:15:32.774Z,63.31
2017-06-09T05:17:34.931Z,66.49
2017-06-09T05:19:36.819Z,64.86
2017-06-09T05:21:38.852Z,67.16
2017-06-09T05:23:40.945Z,67.65
2017-06-09T05:25:43.197Z,66.20
2017-06-09T05:27:44.947Z,68.60
2017-06-09T05:29:46.854Z,66.68
2017-06-09T05:31:48.715Z,64.82
2017-06-09T05:33:50.512Z,66.68
2017-06-09T05:35:53.067Z,68.32
2017-06-09T05:37:54.967Z,68.22
2017-06-09T05:39:56.842Z,68.90
2017-06-09T05:41:58.771Z,68.70
2017-06-09T05:44:00.963Z,67.16
2017-06-09T05:46:03.035Z,68.41
2017-06-09T05:48:04.934Z,68.22
2017-06-09T05:50:06.705Z,68.51
2017-06-09T05:52:08.547Z,68.13
2017-06-09T05:54:10.408Z,68.51
2017-06-09T05:56:12.602Z,68.60
2017-06-09T05:58:14.360Z,66.10
2017-06-09T06:00:16.632Z,67.26
2017-06-09T06:02:19.063Z,68.60
2017-06-09T06:04:21.453Z,67.16
2017-06-09T06:06:23.830Z,64.47
2017-06-09T06:08:25.680Z,65.14
2017-06-09T06:10:27.476Z,63.99
2017-06-09T06:12:29.639Z,65.37
2017-06-09T06:14:32.999Z,66.62
2017-06-09T06:16:34.551Z,66.71
2017-06-09T06:18:36.663Z,64.40
2017-06-09T06:20:38.554Z,65.27
2017-06-09T06:22:40.389Z,64.21
2017-06-09T06:24:42.543Z,65.37
2017-06-09T06:26:44.731Z,64.40
2017-06-09T06:28:46.529Z,65.94
2017-06-09T06:30:48.582Z,64.98
2017-06-09T06:32:50.896Z,63.64
2017-06-09T06:34:52.723Z,64.69
2017-06-09T06:36:54.677Z,63.25
2017-06-09T06:38:56.485Z,61.71
2017-06-09T06:40:59.596Z,63.15
2017-06-09T06:43:01.597Z,61.42
2017-06-09T06:45:03.950Z,63.15
2017-06-09T06:47:05.968Z,61.71
2017-06-09T06:49:07.759Z,61.80
2017-06-09T06:51:09.556Z,60.84
2017-06-09T06:53:11.713Z,61.22
2017-06-09T06:55:13.996Z,63.54
2017-06-09T06:57:15.836Z,63.64
2017-06-09T06:59:17.690Z,64.12
2017-06-09T07:01:20.089Z,64.50
2017-06-09T07:03:21.942Z,62.48
2017-06-09T07:05:23.742Z,62.87
2017-06-09T07:07:25.787Z,61.90
2017-06-09T07:09:27.582Z,61.49
2017-06-09T07:11:29.946Z,62.06
2017-06-09T07:13:31.807Z,63.79
2017-06-09T07:15:33.821Z,62.26
2017-06-09T07:17:35.643Z,63.41
2017-06-09T07:19:37.483Z,63.41
2017-06-09T07:21:39.298Z,64.56
2017-06-09T07:23:41.345Z,63.02
2017-06-09T07:25:43.323Z,63.60
2017-06-09T07:27:45.237Z,64.40
2017-06-09T07:29:47.286Z,65.37
2017-06-09T07:31:49.157Z,63.44
2017-06-09T07:33:51.215Z,62.19
2017-06-09T07:35:53.224Z,65.08
2017-06-09T07:37:55.258Z,64.40
2017-06-09T07:39:57.074Z,64.59
2017-06-09T07:41:59.223Z,64.98
2017-06-09T07:44:02.274Z,63.25
2017-06-09T07:46:04.490Z,64.05
2017-06-09T07:48:06.401Z,63.18
2017-06-09T07:50:08.340Z,63.18
2017-06-09T07:52:10.233Z,61.93
2017-06-09T07:54:12.283Z,62.60
2017-06-09T07:56:14.358Z,62.00
2017-06-09T07:58:16.012Z,63.34
2017-06-09T08:00:18.163Z,61.22
2017-06-09T08:03:00.331Z,63.25
2017-06-09T08:05:01.817Z,64.02
2017-06-09T08:07:03.229Z,63.15
2017-06-09T08:09:04.774Z,64.21
2017-06-09T08:11:06.271Z,63.54
2017-06-09T08:13:08.197Z,63.92
2017-06-09T08:15:09.807Z,65.37
2017-06-09T08:17:11.655Z,65.46
2017-06-09T08:19:13.548Z,65.27
2017-06-09T08:21:15.413Z,64.40
2017-06-09T08:23:17.277Z,65.08
2017-06-09T08:25:19.005Z,66.24
2017-06-09T08:27:20.845Z,66.42
2017-06-09T08:29:22.611Z,67.07
2017-06-09T08:31:24.496Z,67.97
2017-06-09T08:33:26.218Z,67.93
2017-06-09T08:35:28.005Z,67.35
2017-06-09T08:37:29.661Z,67.93
2017-06-09T08:39:31.196Z,68.51
2017-06-09T08:41:32.953Z,68.99
2017-06-09T08:43:34.803Z,69.76
2017-06-09T08:45:36.474Z,69.47
2017-06-09T08:47:38.217Z,68.90
2017-06-09T08:49:40.023Z,69.76
2017-06-09T08:51:41.565Z,68.80
2017-06-09T08:53:43.347Z,69.28
2017-06-09T08:55:45.058Z,68.70
2017-06-09T08:57:46.784Z,69.15
2017-06-09T08:59:48.550Z,70.40
2017-06-09T09:01:50.207Z,69.63
2017-06-09T09:03:52.001Z,69.92
2017-06-09T09:05:53.805Z,70.21
2017-06-09T09:07:55.630Z,70.11
2017-06-09T09:09:57.515Z,70.62
2017-06-09T09:11:59.082Z,70.21
2017-06-09T09:14:00.876Z,70.50
2017-06-09T09:16:02.726Z,70.98
2017-06-09T09:18:04.455Z,71.08
2017-06-09T09:20:06.142Z,71.33
2017-06-09T09:22:07.803Z,71.91
2017-06-09T09:24:09.565Z,72.77
2017-06-09T09:26:11.248Z,72.58
2017-06-09T09:28:12.973Z,73.47
2017-06-09T09:30:14.605Z,71.36
2017-06-09T09:32:16.139Z,71.84
2017-06-09T09:34:18.014Z,72.09
2017-06-09T09:36:19.746Z,74.11
2017-06-09T09:38:21.572Z,72.23
2017-06-09T09:40:23.050Z,73.06
2017-06-09T09:42:24.562Z,71.71
2017-06-09T09:44:26.991Z,72.38
2017-06-09T09:46:29.402Z,73.79
2017-06-09T09:48:31.197Z,74.75
2017-06-09T09:50:33.055Z,74.94
2017-06-09T09:52:34.826Z,76.73
2017-06-09T09:54:37.198Z,78.27
2017-06-09T09:56:38.885Z,79.38
2017-06-09T09:58:40.498Z,81.01
2017-06-09T10:00:42.138Z,81.49
2017-06-09T10:02:44.027Z,81.68
2017-06-09T10:04:45.761Z,81.78
2017-06-09T10:06:47.626Z,82.84
2017-06-09T10:08:49.974Z,82.98
2017-06-09T10:10:51.534Z,83.56
2017-06-09T10:12:53.501Z,83.60
2017-06-09T10:14:55.106Z,83.65
2017-06-09T10:16:56.616Z,83.37
2017-06-09T10:18:58.518Z,83.31
2017-06-09T10:21:00.347Z,82.74
2017-06-09T10:23:02.573Z,84.23
2017-06-09T10:25:04.141Z,84.23
2017-06-09T10:27:05.637Z,84.61
2017-06-09T10:29:07.545Z,85.10
2017-06-09T10:31:09.618Z,85.28
2017-06-09T10:33:11.133Z,85.82
2017-06-09T10:35:12.639Z,86.25
2017-06-09T10:37:14.168Z,86.97
2017-06-09T10:39:15.683Z,87.26
2017-06-09T10:41:17.513Z,87.45
2017-06-09T10:43:19.080Z,87.84
2017-06-09T10:45:20.964Z,88.31
2017-06-09T10:47:22.506Z,87.74
2017-06-09T10:49:24.441Z,88.22
2017-06-09T10:51:25.963Z,88.41
2017-06-09T10:53:27.458Z,88.51
2017-06-09T10:55:29.223Z,88.79
2017-06-09T10:57:30.722Z,89.18
2017-06-09T10:59:32.342Z,87.55
2017-06-09T11:01:33.835Z,88.22
2017-06-09T11:03:35.333Z,88.79
2017-06-09T11:05:37.482Z,88.98
2017-06-09T11:07:39.657Z,87.93
2017-06-09T11:09:41.366Z,88.70
2017-06-09T11:11:42.874Z,88.98
2017-06-09T11:13:45.495Z,88.98
2017-06-09T11:15:47.139Z,88.17
2017-06-09T11:17:48.841Z,88.35
2017-06-09T11:19:50.679Z,87.93
2017-06-09T11:21:52.811Z,89.27
2017-06-09T11:23:54.429Z,89.27
2017-06-09T11:25:56.017Z,89.70
2017-06-09T11:27:57.490Z,88.84
2017-06-09T11:29:59.303Z,88.74
2017-06-09T11:32:01.019Z,87.88
2017-06-09T11:34:02.752Z,87.78
2017-06-09T11:36:04.767Z,88.35
2017-06-09T11:38:06.510Z,86.92
2017-06-09T11:40:08.305Z,87.98
2017-06-09T11:42:09.800Z,88.84
2017-06-09T11:44:11.683Z,87.59
2017-06-09T11:46:13.674Z,88.65
2017-06-09T11:48:16.243Z,87.98
2017-06-09T11:50:18.049Z,88.17
2017-06-09T11:52:19.915Z,88.74
2017-06-09T11:54:21.695Z,88.84
2017-06-09T11:56:23.491Z,88.21
2017-06-09T11:58:25.395Z,87.40
2017-06-09T12:00:27.105Z,87.78
2017-06-09T12:02:28.985Z,88.21
2017-06-09T12:04:30.524Z,86.77
2017-06-09T12:06:31.980Z,87.05
2017-06-09T12:08:33.511Z,87.25
2017-06-09T12:10:35.215Z,87.15
2017-06-09T12:12:37.016Z,87.35
2017-06-09T12:14:38.935Z,86.92
2017-06-09T12:16:41.289Z,88.02
2017-06-09T12:18:43.060Z,87.63
2017-06-09T12:20:44.634Z,87.40
2017-06-09T12:22:46.204Z,88.07
2017-06-09T12:24:47.796Z,87.98
2017-06-09T12:26:50.205Z,87.49
2017-06-09T12:28:52.063Z,88.07
2017-06-09T12:30:53.973Z,88.45
2017-06-09T12:32:55.507Z,87.05
2017-06-09T12:34:57.811Z,88.11
2017-06-09T12:36:59.417Z,87.54
2017-06-09T12:39:00.965Z,86.58
2017-06-09T12:41:02.517Z,88.88
2017-06-09T12:43:04.266Z,86.87
2017-06-09T12:45:06.037Z,87.96
2017-06-09T12:47:07.722Z,87.01
2017-06-09T12:49:09.254Z,87.29
2017-06-09T12:51:10.913Z,87.49
2017-06-09T12:53:12.767Z,85.32
2017-06-09T12:55:14.507Z,84.17
2017-06-09T12:57:16.197Z,83.20
2017-06-09T12:59:18.478Z,85.22
2017-06-09T13:01:20.297Z,87.19
2017-06-09T13:03:22.002Z,84.73
2017-06-09T13:05:23.865Z,81.84
2017-06-09T13:07:26.354Z,80.30
2017-06-09T13:09:28.591Z,79.35
2017-06-09T13:11:30.860Z,78.25
2017-06-09T13:13:32.600Z,81.46
2017-06-09T13:15:34.378Z,80.21
2017-06-09T13:17:36.205Z,79.92
2017-06-09T13:19:38.817Z,76.36
2017-06-09T13:21:40.640Z,79.35
2017-06-09T13:23:42.480Z,77.13
2017-06-09T13:25:44.435Z,81.02
2017-06-09T13:27:46.122Z,75.05
2017-06-09T13:29:47.664Z,78.00
2017-06-09T13:31:49.836Z,78.42
2017-06-09T13:33:51.610Z,76.01
2017-06-09T13:35:53.559Z,76.11
2017-06-09T13:37:55.365Z,76.92
2017-06-09T13:39:57.530Z,73.94
2017-06-09T13:41:59.205Z,73.07
2017-06-09T13:44:01.036Z,73.78
2017-06-09T13:46:02.892Z,74.13
2017-06-09T13:48:04.892Z,73.30
2017-06-09T13:50:06.714Z,68.35
2017-06-09T13:52:09.450Z,72.07
2017-06-09T13:54:11.341Z,73.77
2017-06-09T13:56:13.193Z,78.67
2017-06-09T13:58:15.035Z,78.63
2017-06-09T14:00:16.890Z,79.88
2017-06-09T14:02:18.721Z,76.65
2017-06-09T14:04:20.569Z,73.54
2017-06-09T14:06:22.321Z,75.13
2017-06-09T14:08:24.145Z,77.63
2017-06-09T14:10:25.971Z,79.22
2017-06-09T14:12:27.757Z,79.22
2017-06-09T14:14:29.566Z,81.53
2017-06-09T14:16:31.421Z,83.26
2017-06-09T14:18:33.229Z,83.11
2017-06-09T14:20:34.935Z,81.23
2017-06-09T14:22:36.715Z,79.02
2017-06-09T14:24:38.643Z,80.98
2017-06-09T14:27:21.408Z,78.48
2017-06-09T14:29:23.151Z,83.29
2017-06-09T14:31:30.123Z,83.29
2017-06-09T14:33:32.029Z,80.06
2017-06-09T14:35:35.603Z,78.38
2017-06-09T14:37:37.062Z,76.65
2017-06-09T14:39:39.626Z,80.02
2017-06-09T14:41:41.294Z,80.40
2017-06-09T14:43:42.759Z,77.61
2017-06-09T14:45:44.635Z,74.38
2017-06-09T14:47:46.580Z,80.06
2017-06-09T14:49:48.437Z,76.11
2017-06-09T14:51:50.325Z,77.94
2017-06-09T14:53:52.305Z,79.23
2017-06-09T14:55:54.123Z,73.46
2017-06-09T14:57:55.969Z,76.63
2017-06-09T14:59:57.699Z,71.62
2017-06-09T15:01:59.566Z,68.32
2017-06-09T15:04:01.396Z,67.65
2017-06-09T15:06:03.206Z,66.94
2017-06-09T15:08:05.084Z,68.38
2017-06-09T15:10:07.061Z,68.67
2017-06-09T15:12:08.757Z,69.67
2017-06-09T15:14:10.578Z,71.14
2017-06-09T15:16:12.509Z,72.20
2017-06-09T15:18:14.330Z,70.37
2017-06-09T15:20:16.299Z,68.06
2017-06-09T15:22:18.277Z,68.06
2017-06-09T15:24:20.142Z,66.91
2017-06-09T15:26:21.950Z,66.24
2017-06-09T15:28:23.737Z,65.08
2017-06-09T15:30:25.663Z,68.64
2017-06-09T15:32:27.608Z,71.14
2017-06-09T15:34:29.416Z,68.13
2017-06-09T15:36:31.366Z,68.60
2017-06-09T15:38:33.207Z,63.60
2017-06-09T15:40:35.017Z,69.67
2017-06-09T15:42:36.909Z,65.14
2017-06-09T15:44:38.711Z,64.08
2017-06-09T15:46:40.497Z,64.56
2017-06-09T15:48:42.334Z,62.93
2017-06-09T15:50:44.180Z,62.74
2017-06-09T15:52:46.086Z,63.79
2017-06-09T15:54:47.754Z,63.06
2017-06-09T15:56:49.681Z,58.15
2017-06-09T15:58:51.314Z,56.60
2017-06-09T16:00:53.125Z,59.30
2017-06-09T16:02:54.970Z,57.35
2017-06-09T16:04:56.748Z,59.85
2017-06-09T16:06:58.533Z,57.45
2017-06-09T16:09:00.372Z,59.75
2017-06-09T16:11:02.514Z,58.98
2017-06-09T16:13:04.325Z,58.60
2017-06-09T16:15:06.373Z,59.88
2017-06-09T16:17:08.280Z,59.30
2017-06-09T16:19:10.425Z,59.88
2017-06-09T16:21:12.311Z,57.89
2017-06-09T16:23:14.082Z,57.50
2017-06-09T16:25:15.910Z,56.82
2017-06-09T16:27:17.989Z,55.83
2017-06-09T16:29:19.786Z,56.67
2017-06-09T16:31:21.574Z,55.71
2017-06-09T16:33:23.339Z,58.02
2017-06-09T16:35:25.237Z,57.73
2017-06-09T16:37:27.110Z,57.64
2017-06-09T16:39:29.178Z,60.33
2017-06-09T16:41:31.293Z,58.98
2017-06-09T16:43:33.097Z,56.67
2017-06-09T16:45:34.930Z,56.29
2017-06-09T16:47:36.785Z,58.63
2017-06-09T16:49:38.762Z,58.72
2017-06-09T16:51:40.624Z,56.03
2017-06-09T16:53:42.567Z,57.28
2017-06-09T16:55:44.459Z,54.78
2017-06-09T16:57:46.192Z,55.93
2017-06-09T16:59:48.034Z,55.16
2017-06-09T17:01:49.846Z,54.68
2017-06-09T17:03:51.772Z,57.21
2017-06-09T17:05:53.754Z,54.30
2017-06-09T17:07:55.614Z,55.74
2017-06-09T17:09:57.648Z,54.49
2017-06-09T17:11:59.469Z,53.33
2017-06-09T17:14:01.378Z,54.85
2017-06-09T17:16:03.221Z,55.62
2017-06-09T17:18:05.069Z,55.52
2017-06-09T17:20:06.954Z,55.93
2017-06-09T17:22:08.887Z,53.81
2017-06-09T17:24:10.647Z,53.72
2017-06-09T17:26:12.433Z,53.53
2017-06-09T17:28:14.261Z,51.50
2017-06-09T17:30:16.082Z,54.10
2017-06-09T17:32:17.998Z,52.27
2017-06-09T17:34:19.809Z,54.78
2017-06-09T17:36:21.889Z,54.87
2017-06-09T17:38:23.749Z,53.81
2017-06-09T17:40:25.611Z,52.06
2017-06-09T17:42:27.484Z,54.08
2017-06-09T17:44:29.303Z,53.40
2017-06-09T17:46:31.188Z,54.85
2017-06-09T17:48:33.013Z,53.40
2017-06-09T17:50:34.809Z,54.27
2017-06-09T17:52:36.569Z,54.46
2017-06-09T17:54:38.325Z,53.98
2017-06-09T17:56:40.113Z,54.27
2017-06-09T17:58:42.050Z,54.56
2017-06-09T18:00:43.956Z,53.59
2017-06-09T18:02:45.801Z,54.85
2017-06-09T18:04:47.645Z,54.34
2017-06-09T18:06:49.401Z,55.20
2017-06-09T18:08:51.178Z,55.11
2017-06-09T18:10:52.984Z,53.57
2017-06-09T18:12:54.967Z,54.82
2017-06-09T18:14:56.802Z,54.24
2017-06-09T18:16:58.668Z,53.28
2017-06-09T18:19:00.596Z,55.49
2017-06-09T18:21:02.469Z,55.49
2017-06-09T18:23:04.304Z,52.61
2017-06-09T18:25:06.046Z,53.47
2017-06-09T18:27:07.864Z,54.72
2017-06-09T18:29:09.678Z,55.59
2017-06-09T18:31:11.564Z,54.24
2017-06-09T18:33:13.461Z,54.24
2017-06-09T18:35:15.250Z,52.89
2017-06-09T18:37:17.198Z,53.76
2017-06-09T18:39:19.037Z,55.49
2017-06-09T18:41:21.020Z,53.96
2017-06-09T18:43:22.904Z,55.49
2017-06-09T18:45:24.806Z,55.68
2017-06-09T18:47:26.595Z,55.30
2017-06-09T18:49:28.532Z,56.65
2017-06-09T18:51:30.329Z,55.49
2017-06-09T18:53:32.110Z,55.78
2017-06-09T18:55:33.892Z,56.45
2017-06-09T18:57:35.831Z,59.24
2017-06-09T18:59:37.653Z,57.03
2017-06-09T19:01:39.578Z,57.03
2017-06-09T19:03:41.402Z,57.99
2017-06-09T19:05:43.241Z,54.69
2017-06-09T19:07:44.980Z,57.29
2017-06-09T19:09:46.791Z,59.12
2017-06-09T19:11:48.652Z,57.29
2017-06-09T19:13:50.511Z,57.07
2017-06-09T19:15:52.326Z,57.68
2017-06-09T19:17:54.447Z,59.66
2017-06-09T19:19:56.588Z,59.38
2017-06-09T19:21:58.750Z,58.70
2017-06-09T19:24:00.644Z,58.89
2017-06-09T19:26:02.457Z,58.13
2017-06-09T19:28:04.362Z,59.95
2017-06-09T19:30:06.198Z,59.86
2017-06-09T19:32:08.088Z,59.38
2017-06-09T19:34:09.962Z,59.76
2017-06-09T19:36:11.759Z,60.05
2017-06-09T19:38:13.567Z,59.76
2017-06-09T19:40:15.433Z,60.98
2017-06-09T19:42:17.206Z,60.78
2017-06-09T19:44:18.997Z,60.69
2017-06-09T19:46:20.893Z,61.08
2017-06-09T19:48:22.665Z,60.21
2017-06-09T19:50:25.166Z,60.40
2017-06-09T19:52:26.939Z,59.92
2017-06-09T19:54:28.815Z,60.98
2017-06-09T19:56:30.697Z,60.88
2017-06-09T19:58:32.631Z,61.36
2017-06-09T20:00:34.405Z,61.72
2017-06-09T20:02:36.246Z,62.01
2017-06-09T20:04:38.142Z,61.43
2017-06-09T20:06:40.002Z,61.72
2017-06-09T20:08:41.883Z,61.33
2017-06-09T20:10:43.688Z,62.58
2017-06-09T20:12:45.539Z,63.06
2017-06-09T20:14:47.460Z,62.96
2017-06-09T20:16:49.375Z,62.58
2017-06-09T20:18:51.520Z,63.25
2017-06-09T20:20:53.276Z,63.51
2017-06-09T20:22:55.147Z,63.35
2017-06-09T20:24:56.922Z,63.73
2017-06-09T20:26:58.831Z,64.02
2017-06-09T20:29:00.729Z,63.64
2017-06-09T20:31:02.648Z,64.12
2017-06-09T20:33:04.656Z,64.22
2017-06-09T20:35:06.674Z,64.66
2017-06-09T20:37:08.376Z,64.56
2017-06-09T20:39:10.240Z,64.18
2017-06-09T20:41:11.909Z,65.14
2017-06-09T20:43:14.000Z,65.14
2017-06-09T20:45:16.019Z,66.10
2017-06-09T20:47:17.892Z,65.68
2017-06-09T20:49:19.779Z,66.29
2017-06-09T20:51:21.780Z,65.97
2017-06-09T20:53:24.381Z,65.88
2017-06-09T20:55:26.588Z,65.97
2017-06-09T20:57:28.350Z,66.16
2017-06-09T20:59:30.129Z,66.19
2017-06-09T21:01:31.977Z,67.63
2017-06-09T21:03:33.741Z,66.96
2017-06-09T21:05:35.685Z,65.23
2017-06-09T21:07:37.519Z,66.10
2017-06-09T21:09:39.340Z,65.23
2017-06-09T21:11:41.316Z,64.56
2017-06-09T21:13:43.933Z,64.76
2017-06-09T21:15:46.379Z,64.85
2017-06-09T21:17:48.136Z,64.47
2017-06-09T21:19:50.268Z,65.14
2017-06-09T21:21:52.344Z,64.85
2017-06-09T21:23:54.058Z,65.14
2017-06-09T21:25:55.927Z,65.23
2017-06-09T21:27:57.875Z,65.33
2017-06-09T21:29:59.568Z,66.58
2017-06-09T21:32:01.698Z,66.58
2017-06-09T21:34:04.921Z,65.91
2017-06-09T21:36:06.933Z,65.05
2017-06-09T21:38:08.849Z,65.33
2017-06-09T21:40:10.683Z,65.91
2017-06-09T21:42:12.538Z,66.00
2017-06-09T21:44:14.651Z,65.14
2017-06-09T21:46:17.785Z,66.26
2017-06-09T21:49:04.994Z,66.16
2017-06-09T21:51:08.021Z,66.67
2017-06-09T21:53:10.480Z,66.35
2017-06-09T21:55:52.772Z,66.26
2017-06-09T21:58:36.829Z,66.55
2017-06-09T22:01:19.943Z,66.61
2017-06-09T22:03:25.002Z,66.42
2017-06-09T22:05:27.453Z,66.99
2017-06-09T22:07:29.328Z,66.32
2017-06-09T22:09:31.153Z,66.42
2017-06-09T22:11:32.978Z,66.26
2017-06-09T22:13:34.711Z,65.30
2017-06-09T22:15:37.415Z,65.30
2017-06-09T22:17:39.572Z,64.82
2017-06-09T22:19:41.366Z,65.26
2017-06-09T22:21:43.224Z,66.42
2017-06-09T22:23:45.705Z,64.59
2017-06-09T22:25:47.512Z,65.08
2017-06-09T22:27:49.268Z,65.17
2017-06-09T22:29:54.554Z,65.26
2017-06-09T22:31:56.937Z,65.55
2017-06-09T22:33:58.784Z,66.00
2017-06-09T22:36:00.606Z,66.48
2017-06-09T22:38:02.423Z,66.58
2017-06-09T22:40:05.584Z,65.91
2017-06-09T22:42:07.386Z,65.91
2017-06-09T22:44:09.875Z,65.81
2017-06-09T22:46:11.736Z,65.91
2017-06-09T22:48:14.046Z,66.45
2017-06-09T22:50:17.821Z,66.35
2017-06-09T22:52:20.635Z,66.38
2017-06-09T22:54:22.430Z,66.74
2017-06-09T22:56:25.750Z,66.45
2017-06-09T22:58:28.289Z,66.54
2017-06-09T23:00:30.665Z,66.83
2017-06-09T23:02:32.518Z,67.69
2017-06-09T23:04:34.468Z,67.69
2017-06-09T23:06:37.687Z,67.98
2017-06-09T23:09:21.916Z,68.17
2017-06-09T23:12:05.279Z,67.21
